Time,TemperatureF,DewpointF,PressureIn,WindDirection,WindDirectionDegrees,WindSpeedMPH,WindSpeedGustMPH,Humidity,HourlyPrecipIn,Conditions,Clouds,dailyrainin,SolarRadiationWatts/m^2,SoftwareType,DateUTC
2013-03-27 00:00:00,51.0,41.9,30.01,South,182,1.0,1.0,71,0.00,,,0.00,0,Wunderground v.1.15,2013-03-27 07:00:00,
2013-03-27 00:10:00,50.9,41.8,30.01,West,259,0.0,0.0,71,0.00,,,0.00,0,Wunderground v.1.15,2013-03-27 07:10:00,
2013-03-27 00:20:00,50.8,41.4,30.01,West,260,0.0,0.0,70,0.00,,,0.00,0,Wunderground v.1.15,2013-03-27 07:20:00,
2013-03-27 00:30:00,50.6,41.2,30.01,South,176,0.0,0.0,70,0.00,,,0.00,0,Wunderground v.1.15,2013-03-27 07:30:00,
2013-03-27 00:40:00,50.5,41.1,30.01,South,175,0.0,0.0,70,0.00,,,0.00,0,Wunderground v.1.15,2013-03-27 07:40:00,
2013-03-27 00:50:00,50.2,40.8,30.01,South,175,0.0,0.0,70,0.00,,,0.00,0,Wunderground v.1.15,2013-03-27 07:50:00,
2013-03-27 01:00:00,49.8,40.8,30.01,South,173,1.0,1.0,71,0.00,,,0.00,0,Wunderground v.1.15,2013-03-27 08:00:00,
2013-03-27 01:10:00,49.4,41.1,30.01,SSE,147,1.0,1.0,73,0.00,,,0.00,0,Wunderground v.1.15,2013-03-27 08:10:00,
2013-03-27 01:20:00,49.3,41.4,30.00,SSE,147,0.0,0.0,74,0.00,,,0.00,0,Wunderground v.1.15,2013-03-27 08:20:00,
2013-03-27 01:30:00,49.3,41.7,30.00,SE,146,0.0,3.0,75,0.00,,,0.00,0,Wunderground v.1.15,2013-03-27 08:30:00,
2013-03-27 01:40:00,49.0,42.4,30.00,SSE,153,3.0,3.0,78,0.00,,,0.00,0,Wunderground v.1.15,2013-03-27 08:40:00,
2013-03-27 01:50:00,48.6,42.0,30.00,SE,146,1.0,3.0,78,0.00,,,0.00,0,Wunderground v.1.15,2013-03-27 08:50:00,
2013-03-27 02:00:00,48.4,42.2,30.00,SSE,157,2.0,2.0,79,0.00,,,0.00,0,Wunderground v.1.15,2013-03-27 09:00:00,
2013-03-27 02:10:00,48.5,42.3,30.00,SSE,157,1.0,1.0,79,0.00,,,0.00,0,Wunderground v.1.15,2013-03-27 09:10:00,
2013-03-27 02:20:00,48.6,42.4,30.00,SSE,159,0.0,0.0,79,0.00,,,0.00,0,Wunderground v.1.15,2013-03-27 09:20:00,
2013-03-27 02:30:00,48.6,42.0,29.99,SSE,159,0.0,0.0,78,0.00,,,0.00,0,Wunderground v.1.15,2013-03-27 09:30:00,
2013-03-27 02:40:00,48.4,42.2,29.99,SSE,159,1.0,1.0,79,0.00,,,0.00,0,Wunderground v.1.15,2013-03-27 09:40:00,
2013-03-27 02:50:00,48.3,42.1,29.99,SSE,159,1.0,3.0,79,0.00,,,0.00,0,Wunderground v.1.15,2013-03-27 09:50:00,
2013-03-27 03:00:00,48.3,42.1,29.99,SSE,159,1.0,2.0,79,0.00,,,0.00,0,Wunderground v.1.15,2013-03-27 10:00:00,
2013-03-27 03:10:00,48.4,41.9,29.99,SSE,159,0.0,0.0,78,0.00,,,0.00,0,Wunderground v.1.15,2013-03-27 10:10:00,
2013-03-27 03:20:00,48.6,41.7,29.99,SSE,159,0.0,1.0,77,0.00,,,0.00,0,Wunderground v.1.15,2013-03-27 10:20:00,
2013-03-27 03:30:00,48.7,41.5,29.99,SSE,159,0.0,0.0,76,0.00,,,0.00,0,Wunderground v.1.15,2013-03-27 10:30:00,
2013-03-27 03:40:00,48.2,41.3,29.98,SSE,159,1.0,1.0,77,0.00,,,0.00,0,Wunderground v.1.15,2013-03-27 10:40:00,
2013-03-27 03:50:00,48.0,41.5,29.98,South,171,1.0,1.0,78,0.00,,,0.00,0,Wunderground v.1.15,2013-03-27 10:50:00,
2013-03-27 04:00:00,47.9,41.4,29.98,SSE,163,2.0,2.0,78,0.00,,,0.00,0,Wunderground v.1.15,2013-03-27 11:00:00,
2013-03-27 04:10:00,47.8,41.6,29.99,SSE,164,0.0,0.0,79,0.00,,,0.00,0,Wunderground v.1.15,2013-03-27 11:10:00,
2013-03-27 04:20:00,47.9,41.7,29.99,SSE,163,0.0,0.0,79,0.00,,,0.00,0,Wunderground v.1.15,2013-03-27 11:20:00,
2013-03-27 04:30:00,48.1,41.9,29.98,SSE,163,0.0,0.0,79,0.00,,,0.00,0,Wunderground v.1.15,2013-03-27 11:30:00,
2013-03-27 04:40:00,48.1,41.6,29.99,SSE,163,1.0,1.0,78,0.00,,,0.00,0,Wunderground v.1.15,2013-03-27 11:40:00,
2013-03-27 04:50:00,48.1,41.9,29.99,SSE,166,0.0,0.0,79,0.00,,,0.00,0,Wunderground v.1.15,2013-03-27 11:50:00,
2013-03-27 05:00:00,48.2,42.0,29.99,South,172,0.0,1.0,79,0.00,,,0.00,0,Wunderground v.1.15,2013-03-27 12:00:00,
2013-03-27 05:10:00,48.7,42.5,29.98,South,169,1.0,3.0,79,0.00,,,0.00,0,Wunderground v.1.15,2013-03-27 12:10:00,
2013-03-27 05:20:00,49.2,42.6,29.98,SSE,161,1.0,3.0,78,0.00,,,0.00,0,Wunderground v.1.15,2013-03-27 12:20:00,
2013-03-27 05:30:00,49.7,43.1,29.99,SSE,156,3.0,4.0,78,0.00,,,0.00,0,Wunderground v.1.15,2013-03-27 12:30:00,
2013-03-27 05:40:00,50.1,43.2,29.98,SSE,153,3.0,4.0,77,0.00,,,0.00,0,Wunderground v.1.15,2013-03-27 12:40:00,
2013-03-27 05:50:00,49.9,42.6,29.99,SSE,150,1.0,1.0,76,0.00,,,0.00,0,Wunderground v.1.15,2013-03-27 12:50:00,
2013-03-27 06:00:00,48.7,42.1,29.98,SSE,154,3.0,3.0,78,0.00,,,0.00,0,Wunderground v.1.15,2013-03-27 13:00:00,
2013-03-27 06:10:00,48.0,42.1,29.98,SSE,150,5.0,6.0,80,0.00,,,0.00,0,Wunderground v.1.15,2013-03-27 13:10:00,
2013-03-27 06:20:00,48.5,42.6,29.99,South,175,4.0,4.0,80,0.00,,,0.00,0,Wunderground v.1.15,2013-03-27 13:20:00,
2013-03-27 06:30:00,48.8,43.2,29.99,SSW,198,0.0,0.0,81,0.00,,,0.00,0,Wunderground v.1.15,2013-03-27 13:30:00,
2013-03-27 06:40:00,49.1,43.5,29.99,SSW,198,0.0,0.0,81,0.00,,,0.00,0,Wunderground v.1.15,2013-03-27 13:40:00,
2013-03-27 06:50:00,49.2,43.6,29.99,SSW,196,0.0,0.0,81,0.00,,,0.00,0,Wunderground v.1.15,2013-03-27 13:50:00,
2013-03-27 07:00:00,49.4,43.5,29.99,SSW,196,0.0,0.0,80,0.00,,,0.00,0,Wunderground v.1.15,2013-03-27 14:00:00,
2013-03-27 07:10:00,49.3,43.4,29.99,SSW,196,0.0,1.0,80,0.00,,,0.00,7,Wunderground v.1.15,2013-03-27 14:10:00,
2013-03-27 07:20:00,49.2,43.3,30.00,SSW,192,0.0,0.0,80,0.00,,,0.00,18,Wunderground v.1.15,2013-03-27 14:20:00,
2013-03-27 07:30:00,49.2,43.3,30.00,SSW,195,0.0,0.0,80,0.00,,,0.00,28,Wunderground v.1.15,2013-03-27 14:30:00,
2013-03-27 07:40:00,49.2,43.3,30.00,SSW,195,0.0,0.0,80,0.00,,,0.00,81,Wunderground v.1.15,2013-03-27 14:40:00,
2013-03-27 07:50:00,49.5,43.9,30.00,SSW,195,0.0,0.0,81,0.00,,,0.00,56,Wunderground v.1.15,2013-03-27 14:50:00,
2013-03-27 08:00:00,49.9,44.3,30.00,SSE,163,0.0,1.0,81,0.00,,,0.00,72,Wunderground v.1.15,2013-03-27 15:00:00,
2013-03-27 08:10:00,50.3,45.0,30.00,SSE,163,0.0,0.0,82,0.00,,,0.00,120,Wunderground v.1.15,2013-03-27 15:10:00,
2013-03-27 08:20:00,51.9,46.9,30.00,SSE,155,1.0,2.0,83,0.00,,,0.00,204,Wunderground v.1.15,2013-03-27 15:20:00,
2013-03-27 08:30:00,53.0,46.7,30.00,SSE,154,2.0,3.0,79,0.00,,,0.00,123,Wunderground v.1.15,2013-03-27 15:30:00,
2013-03-27 08:40:00,53.6,46.9,30.00,SE,146,2.0,2.0,78,0.00,,,0.00,137,Wunderground v.1.15,2013-03-27 15:40:00,
2013-03-27 08:50:00,54.1,47.0,30.01,SE,144,1.0,2.0,77,0.00,,,0.00,174,Wunderground v.1.15,2013-03-27 15:50:00,
2013-03-27 09:00:00,54.7,47.6,30.01,SSE,149,1.0,1.0,77,0.00,,,0.00,234,Wunderground v.1.15,2013-03-27 16:00:00,
2013-03-27 09:10:00,55.7,48.2,30.01,SSE,153,1.0,4.0,76,0.00,,,0.00,230,Wunderground v.1.15,2013-03-27 16:10:00,
2013-03-27 09:20:00,56.4,48.6,30.01,SSE,149,1.0,3.0,75,0.00,,,0.00,151,Wunderground v.1.15,2013-03-27 16:20:00,
2013-03-27 09:30:00,58.2,49.6,30.01,SSE,149,0.0,0.0,73,0.00,,,0.00,499,Wunderground v.1.15,2013-03-27 16:30:00,
2013-03-27 09:40:00,60.3,50.1,30.01,SSE,148,0.0,0.0,69,0.00,,,0.00,547,Wunderground v.1.15,2013-03-27 16:40:00,
2013-03-27 09:50:00,61.2,50.9,30.01,NNW,340,0.0,0.0,69,0.00,,,0.00,220,Wunderground v.1.15,2013-03-27 16:50:00,
2013-03-27 10:00:00,61.1,50.8,30.00,North,360,1.0,2.0,69,0.00,,,0.00,552,Wunderground v.1.15,2013-03-27 17:00:00,
2013-03-27 10:10:00,60.9,50.7,30.01,NNE,33,1.0,1.0,69,0.00,,,0.00,517,Wunderground v.1.15,2013-03-27 17:10:00,
2013-03-27 10:20:00,61.1,50.1,30.01,North,5,1.0,1.0,67,0.00,,,0.00,629,Wunderground v.1.15,2013-03-27 17:20:00,
2013-03-27 10:30:00,61.5,50.8,30.00,West,271,1.0,3.0,68,0.00,,,0.00,724,Wunderground v.1.15,2013-03-27 17:30:00,
2013-03-27 10:40:00,63.7,51.3,30.01,East,98,1.0,3.0,64,0.00,,,0.00,714,Wunderground v.1.15,2013-03-27 17:40:00,
2013-03-27 10:50:00,65.9,52.5,30.00,SSW,198,1.0,1.0,62,0.00,,,0.00,831,Wunderground v.1.15,2013-03-27 17:50:00,
2013-03-27 11:00:00,65.9,52.1,30.01,NE,56,1.0,1.0,61,0.00,,,0.00,926,Wunderground v.1.15,2013-03-27 18:00:00,
2013-03-27 11:10:00,67.4,52.6,30.01,ENE,69,1.0,2.0,59,0.00,,,0.00,930,Wunderground v.1.15,2013-03-27 18:10:00,
2013-03-27 11:20:00,66.1,50.9,30.01,SW,235,1.0,3.0,58,0.00,,,0.00,898,Wunderground v.1.15,2013-03-27 18:20:00,
2013-03-27 11:30:00,65.3,51.1,30.01,WSW,238,1.0,2.0,60,0.00,,,0.00,854,Wunderground v.1.15,2013-03-27 18:30:00,
2013-03-27 11:40:00,64.3,51.4,30.01,NW,320,2.0,2.0,63,0.00,,,0.00,914,Wunderground v.1.15,2013-03-27 18:40:00,
2013-03-27 11:50:00,65.3,50.6,30.01,WSW,244,2.0,2.0,59,0.00,,,0.00,977,Wunderground v.1.15,2013-03-27 18:50:00,
2013-03-27 12:00:00,67.0,51.3,30.01,SW,216,2.0,2.0,57,0.00,,,0.00,1055,Wunderground v.1.15,2013-03-27 19:00:00,
2013-03-27 12:10:00,67.2,51.9,30.01,SW,234,1.0,1.0,58,0.00,,,0.00,1125,Wunderground v.1.15,2013-03-27 19:10:00,
2013-03-27 12:20:00,66.9,51.2,30.01,North,5,1.0,4.0,57,0.00,,,0.00,320,Wunderground v.1.15,2013-03-27 19:20:00,
2013-03-27 12:30:00,65.7,50.5,30.02,East,96,1.0,1.0,58,0.00,,,0.00,367,Wunderground v.1.15,2013-03-27 19:30:00,
2013-03-27 12:40:00,65.1,50.4,30.01,NNW,340,1.0,3.0,59,0.00,,,0.00,425,Wunderground v.1.15,2013-03-27 19:40:00,
2013-03-27 12:50:00,64.6,51.3,30.01,NW,314,1.0,2.0,62,0.00,,,0.00,401,Wunderground v.1.15,2013-03-27 19:50:00,
2013-03-27 13:00:00,64.9,51.6,30.01,ENE,59,0.0,0.0,62,0.00,,,0.00,320,Wunderground v.1.15,2013-03-27 20:00:00,
2013-03-27 13:10:00,64.8,51.0,30.02,WNW,302,1.0,1.0,61,0.00,,,0.00,213,Wunderground v.1.15,2013-03-27 20:10:00,
2013-03-27 13:20:00,64.5,51.6,30.01,North,360,1.0,3.0,63,0.00,,,0.00,466,Wunderground v.1.15,2013-03-27 20:20:00,
2013-03-27 13:30:00,64.9,51.6,30.01,NE,53,1.0,1.0,62,0.00,,,0.00,243,Wunderground v.1.15,2013-03-27 20:30:00,
2013-03-27 13:40:00,64.9,51.6,30.01,WNW,285,0.0,0.0,62,0.00,,,0.00,283,Wunderground v.1.15,2013-03-27 20:40:00,
2013-03-27 13:50:00,65.2,51.4,30.01,WSW,251,0.0,0.0,61,0.00,,,0.00,269,Wunderground v.1.15,2013-03-27 20:50:00,
2013-03-27 14:00:00,65.1,51.8,30.01,NE,40,1.0,2.0,62,0.00,,,0.00,445,Wunderground v.1.15,2013-03-27 21:00:00,
2013-03-27 14:10:00,65.7,51.9,30.01,NNE,13,1.0,1.0,61,0.00,,,0.00,397,Wunderground v.1.15,2013-03-27 21:10:00,
2013-03-27 14:20:00,65.9,51.6,30.00,WNW,295,1.0,1.0,60,0.00,,,0.00,320,Wunderground v.1.15,2013-03-27 21:20:00,
2013-03-27 14:30:00,65.6,51.3,30.00,NNE,18,1.0,2.0,60,0.00,,,0.00,392,Wunderground v.1.15,2013-03-27 21:30:00,
2013-03-27 14:40:00,65.7,51.9,30.00,ENE,71,1.0,1.0,61,0.00,,,0.00,336,Wunderground v.1.15,2013-03-27 21:40:00,
2013-03-27 14:50:00,66.1,51.8,30.00,NNE,18,1.0,1.0,60,0.00,,,0.00,299,Wunderground v.1.15,2013-03-27 21:50:00,
2013-03-27 15:00:00,65.4,51.6,30.00,NNE,21,1.0,2.0,61,0.00,,,0.00,306,Wunderground v.1.15,2013-03-27 22:00:00,
2013-03-27 15:10:00,65.5,52.1,30.00,North,360,1.0,1.0,62,0.00,,,0.00,401,Wunderground v.1.15,2013-03-27 22:10:00,
2013-03-27 15:20:00,65.8,52.4,30.00,NW,311,1.0,1.0,62,0.00,,,0.00,339,Wunderground v.1.15,2013-03-27 22:20:00,
2013-03-27 15:30:00,65.2,52.7,30.00,West,279,1.0,1.0,64,0.00,,,0.00,387,Wunderground v.1.15,2013-03-27 22:30:00,
2013-03-27 15:40:00,66.7,53.3,30.00,ENE,72,1.0,1.0,62,0.00,,,0.00,705,Wunderground v.1.15,2013-03-27 22:40:00,
2013-03-27 15:50:00,66.8,52.9,30.00,ENE,74,1.0,3.0,61,0.00,,,0.00,714,Wunderground v.1.15,2013-03-27 22:50:00,
2013-03-27 16:00:00,65.5,53.0,30.00,North,350,2.0,2.0,64,0.00,,,0.00,659,Wunderground v.1.15,2013-03-27 23:00:00,
2013-03-27 16:10:00,65.7,52.8,30.00,North,355,1.0,1.0,63,0.00,,,0.00,610,Wunderground v.1.15,2013-03-27 23:10:00,
2013-03-27 16:20:00,65.2,53.1,30.00,NW,316,0.0,1.0,65,0.00,,,0.00,232,Wunderground v.1.15,2013-03-27 23:20:00,
2013-03-27 16:30:00,64.4,52.4,30.00,NW,315,1.0,1.0,65,0.00,,,0.00,98,Wunderground v.1.15,2013-03-27 23:30:00,
2013-03-27 16:40:00,64.1,52.5,30.00,SW,229,0.0,0.0,66,0.00,,,0.00,127,Wunderground v.1.15,2013-03-27 23:40:00,
2013-03-27 16:50:00,63.6,52.0,30.00,WNW,284,1.0,1.0,66,0.00,,,0.00,146,Wunderground v.1.15,2013-03-27 23:50:00,
2013-03-27 17:00:00,62.8,51.7,30.00,WNW,283,1.0,1.0,67,0.00,,,0.00,265,Wunderground v.1.15,2013-03-28 00:00:00,
2013-03-27 17:10:00,62.0,52.1,30.00,NW,311,0.0,3.0,70,0.00,,,0.00,104,Wunderground v.1.15,2013-03-28 00:10:00,
2013-03-27 17:20:00,61.8,51.9,30.00,ENE,68,1.0,1.0,70,0.00,,,0.00,120,Wunderground v.1.15,2013-03-28 00:20:00,
2013-03-27 17:30:00,61.8,51.9,30.00,West,271,0.0,0.0,70,0.00,,,0.00,123,Wunderground v.1.15,2013-03-28 00:30:00,
2013-03-27 17:40:00,61.5,51.6,30.00,SW,214,0.0,0.0,70,0.00,,,0.00,60,Wunderground v.1.15,2013-03-28 00:40:00,
2013-03-27 17:50:00,61.1,51.2,30.00,WNW,302,0.0,0.0,70,0.00,,,0.00,70,Wunderground v.1.15,2013-03-28 00:50:00,
2013-03-27 18:00:00,60.5,51.0,30.01,West,276,0.0,0.0,71,0.00,,,0.00,93,Wunderground v.1.15,2013-03-28 01:00:00,
2013-03-27 18:10:00,60.2,51.1,30.01,WNW,290,0.0,0.0,72,0.00,,,0.00,104,Wunderground v.1.15,2013-03-28 01:10:00,
2013-03-27 18:20:00,60.0,51.3,30.01,WNW,288,0.0,1.0,73,0.00,,,0.00,58,Wunderground v.1.15,2013-03-28 01:20:00,
2013-03-27 18:30:00,59.8,51.5,30.01,WNW,290,0.0,0.0,74,0.00,,,0.00,54,Wunderground v.1.15,2013-03-28 01:30:00,
2013-03-27 18:40:00,59.5,51.2,30.01,West,273,0.0,0.0,74,0.00,,,0.00,62,Wunderground v.1.15,2013-03-28 01:40:00,
2013-03-27 18:50:00,59.1,51.2,30.01,WSW,253,0.0,0.0,75,0.00,,,0.00,23,Wunderground v.1.15,2013-03-28 01:50:00,
2013-03-27 19:00:00,59.0,51.1,30.01,WSW,252,0.0,0.0,75,0.00,,,0.00,11,Wunderground v.1.15,2013-03-28 02:00:00,
2013-03-27 19:10:00,58.7,51.2,30.01,WSW,253,0.0,0.0,76,0.00,,,0.00,5,Wunderground v.1.15,2013-03-28 02:10:00,
2013-03-27 19:20:00,58.5,51.3,30.01,West,261,0.0,0.0,77,0.00,,,0.00,0,Wunderground v.1.15,2013-03-28 02:20:00,
2013-03-27 19:30:00,58.1,50.9,30.01,WNW,290,0.0,1.0,77,0.00,,,0.00,0,Wunderground v.1.15,2013-03-28 02:30:00,
2013-03-27 19:40:00,57.8,51.0,30.02,WNW,286,0.0,0.0,78,0.00,,,0.00,0,Wunderground v.1.15,2013-03-28 02:40:00,
2013-03-27 19:50:00,57.6,51.1,30.02,WNW,300,0.0,0.0,79,0.00,,,0.00,0,Wunderground v.1.15,2013-03-28 02:50:00,
2013-03-27 20:00:00,57.2,51.1,30.02,WSW,257,0.0,0.0,80,0.00,,,0.00,0,Wunderground v.1.15,2013-03-28 03:00:00,
2013-03-27 20:10:00,56.8,51.0,30.02,West,280,0.0,0.0,81,0.00,,,0.00,0,Wunderground v.1.15,2013-03-28 03:10:00,
2013-03-27 20:20:00,56.4,51.0,30.02,South,186,1.0,3.0,82,0.00,,,0.00,0,Wunderground v.1.15,2013-03-28 03:20:00,
2013-03-27 20:30:00,56.2,50.8,30.03,NNW,345,0.0,1.0,82,0.00,,,0.00,0,Wunderground v.1.15,2013-03-28 03:30:00,
2013-03-27 20:40:00,56.1,51.0,30.03,NNW,345,0.0,0.0,83,0.00,,,0.00,0,Wunderground v.1.15,2013-03-28 03:40:00,
2013-03-27 20:50:00,56.0,50.9,30.03,NNW,344,0.0,0.0,83,0.00,,,0.00,0,Wunderground v.1.15,2013-03-28 03:50:00,
2013-03-27 21:00:00,55.8,50.7,30.03,NNW,344,0.0,0.0,83,0.00,,,0.00,0,Wunderground v.1.15,2013-03-28 04:00:00,
2013-03-27 21:10:00,55.7,50.9,30.04,NNW,344,0.0,0.0,84,0.00,,,0.00,0,Wunderground v.1.15,2013-03-28 04:10:00,
2013-03-27 21:20:00,55.5,50.7,30.04,NNW,344,0.0,0.0,84,0.00,,,0.00,0,Wunderground v.1.15,2013-03-28 04:20:00,
2013-03-27 21:30:00,55.4,50.6,30.04,NNW,339,0.0,0.0,84,0.00,,,0.00,0,Wunderground v.1.15,2013-03-28 04:30:00,
2013-03-27 21:40:00,55.3,50.9,30.04,NNW,339,0.0,0.0,85,0.00,,,0.00,0,Wunderground v.1.15,2013-03-28 04:40:00,
2013-03-27 21:50:00,55.3,50.9,30.05,NNW,339,0.0,0.0,85,0.00,,,0.00,0,Wunderground v.1.15,2013-03-28 04:50:00,
2013-03-27 22:00:00,55.2,50.8,30.05,NNW,333,0.0,0.0,85,0.00,,,0.00,0,Wunderground v.1.15,2013-03-28 05:00:00,
2013-03-27 22:10:00,55.1,50.7,30.05,NNW,333,0.0,0.0,85,0.00,,,0.00,0,Wunderground v.1.15,2013-03-28 05:10:00,
2013-03-27 22:20:00,55.0,50.6,30.05,NNW,333,0.0,0.0,85,0.00,,,0.00,0,Wunderground v.1.15,2013-03-28 05:20:00,
2013-03-27 22:30:00,54.8,50.4,30.05,NNW,333,0.0,0.0,85,0.00,,,0.00,0,Wunderground v.1.15,2013-03-28 05:30:00,
2013-03-27 22:40:00,54.6,50.5,30.05,NNW,333,0.0,0.0,86,0.00,,,0.00,0,Wunderground v.1.15,2013-03-28 05:40:00,
2013-03-27 22:50:00,54.5,50.4,30.05,NNW,333,0.0,0.0,86,0.00,,,0.00,0,Wunderground v.1.15,2013-03-28 05:50:00,
2013-03-27 23:00:00,54.5,50.4,30.05,NNW,333,0.0,0.0,86,0.00,,,0.00,0,Wunderground v.1.15,2013-03-28 06:00:00,
2013-03-27 23:10:00,54.4,50.3,30.05,NNW,333,0.0,0.0,86,0.00,,,0.00,0,Wunderground v.1.15,2013-03-28 06:10:00,
2013-03-27 23:20:00,54.4,50.3,30.05,NNW,333,0.0,0.0,86,0.00,,,0.00,0,Wunderground v.1.15,2013-03-28 06:20:00,
2013-03-27 23:30:00,54.3,50.5,30.05,NNW,333,0.0,0.0,87,0.00,,,0.00,0,Wunderground v.1.15,2013-03-28 06:30:00,
2013-03-27 23:40:00,54.2,50.4,30.05,NNW,333,0.0,0.0,87,0.00,,,0.00,0,Wunderground v.1.15,2013-03-28 06:40:00,
2013-03-27 23:50:00,54.0,50.2,30.05,NNW,333,0.0,0.0,87,0.00,,,0.00,0,Wunderground v.1.15,2013-03-28 06:50:00,